Time;durP1;ratioP1;P1;durP2;ratioP2;P2;SDS_P1;SDS_P2;PMS_P1;PMS_P2;Temp;Humidity;BMP_temperature;BMP_pressure;BME280_temperature;BME280_humidity;BME280_pressure;Samples;Min_cycle;Max_cycle;Signal;HPM_P1;HPM_P2
2023/04/07 05:02:41;;;;;;;12.73;8.23;;;7.10;99.90;;;;;;5319125;23;20059;-75
2023/04/07 05:05:25;;;;;;;14.00;8.75;;;7.10;99.90;;;;;;4960584;29;20288;-75
2023/04/07 05:07:56;;;;;;;14.43;8.25;;;7.10;99.90;;;;;;4942835;29;20039;-73
2023/04/07 05:10:54;;;;;;;12.70;8.00;;;7.10;99.90;;;;;;4953009;28;20331;-73
2023/04/07 05:13:30;;;;;;;14.60;8.18;;;7.10;99.90;;;;;;4951083;29;20379;-72
2023/04/07 05:16:34;;;;;;;12.82;8.43;;;7.10;99.90;;;;;;4965542;29;20043;-73
2023/04/07 05:19:20;;;;;;;12.98;7.97;;;7.10;99.90;;;;;;4915991;29;20368;-74
2023/04/07 05:21:53;;;;;;;13.25;8.20;;;7.10;99.90;;;;;;4893059;29;20040;-74
2023/04/07 05:24:28;;;;;;;13.25;8.75;;;7.10;99.90;;;;;;4893608;29;20088;-72
2023/04/07 05:27:05;;;;;;;12.82;8.18;;;7.20;99.90;;;;;;4893227;29;20036;-73
2023/04/07 05:29:51;;;;;;;13.75;8.68;;;7.20;99.90;;;;;;4907891;29;20036;-72
2023/04/07 05:32:26;;;;;;;13.07;8.30;;;7.20;99.90;;;;;;4894047;29;20258;-73
2023/04/07 05:34:53;;;;;;;13.60;8.77;;;7.20;99.90;;;;;;4908311;29;20219;-73
2023/04/07 05:37:34;;;;;;;14.57;8.45;;;7.20;99.90;;;;;;4911978;29;20036;-74
2023/04/07 05:40:09;;;;;;;12.38;7.82;;;7.30;99.90;;;;;;4911152;29;20040;-73
2023/04/07 05:42:35;;;;;;;12.43;8.50;;;7.30;99.90;;;;;;4911373;29;20055;-74
2023/04/07 05:45:11;;;;;;;13.57;8.00;;;7.40;99.90;;;;;;4910547;29;20028;-73
2023/04/07 05:47:40;;;;;;;14.18;8.45;;;7.50;99.90;;;;;;4927148;29;20040;-73
2023/04/07 05:50:24;;;;;;;14.02;9.20;;;7.60;99.90;;;;;;4913324;29;20067;-73
2023/04/07 05:53:08;;;;;;;14.10;9.05;;;7.60;99.90;;;;;;4912218;29;20032;-74
2023/04/07 05:55:49;;;;;;;11.30;7.82;;;7.60;99.90;;;;;;4917314;29;20035;-73
2023/04/07 05:58:42;;;;;;;12.68;7.97;;;7.70;99.90;;;;;;4966638;29;20033;-73
2023/04/07 06:09:18;;;;;;;12.75;7.85;;;7.80;99.90;;;;;;4870811;29;20028;-73
2023/04/07 06:11:46;;;;;;;15.93;8.00;;;7.80;99.90;;;;;;4870606;29;20268;-73
2023/04/07 06:14:16;;;;;;;14.40;8.73;;;7.90;99.90;;;;;;4855430;29;20057;-73
2023/04/07 06:16:43;;;;;;;14.18;8.18;;;7.90;99.90;;;;;;4870431;29;20128;-73
2023/04/07 06:19:08;;;;;;;13.48;7.88;;;7.90;99.90;;;;;;4854618;29;20227;-74
2023/04/07 06:21:38;;;;;;;10.43;7.22;;;8.00;99.90;;;;;;4855541;29;20046;-72
2023/04/07 06:24:17;;;;;;;11.65;8.10;;;8.10;99.90;;;;;;4854536;29;20296;-73
2023/04/07 06:27:07;;;;;;;13.02;8.35;;;8.10;99.90;;;;;;4864717;29;20064;-73
2023/04/07 06:29:36;;;;;;;13.95;8.10;;;8.10;99.90;;;;;;4870406;29;20104;-74
2023/04/07 06:32:07;;;;;;;11.75;7.78;;;8.20;99.90;;;;;;4861095;29;20058;-73
2023/04/07 06:34:37;;;;;;;13.77;8.05;;;8.30;99.90;;;;;;4873214;29;20045;-74
2023/04/07 06:37:31;;;;;;;12.38;8.18;;;8.40;99.90;;;;;;4884085;29;20020;-73
2023/04/07 06:40:11;;;;;;;12.43;8.07;;;8.50;99.90;;;;;;4909512;29;20032;-73
2023/04/07 06:42:55;;;;;;;15.63;8.70;;;8.50;99.90;;;;;;4909564;29;20033;-73
2023/04/07 06:45:51;;;;;;;13.13;9.00;;;8.50;99.90;;;;;;4909515;29;20033;-73
2023/04/07 06:48:20;;;;;;;12.98;8.52;;;8.50;99.90;;;;;;4909380;29;20045;-73
2023/04/07 06:51:02;;;;;;;12.82;8.48;;;8.50;99.90;;;;;;4908953;29;20314;-73
2023/04/07 06:53:28;;;;;;;12.82;7.85;;;8.60;99.90;;;;;;4909294;29;20303;-73
2023/04/07 06:56:11;;;;;;;11.82;8.10;;;8.70;99.90;;;;;;4908604;29;20053;-73
2023/04/07 06:58:40;;;;;;;12.38;7.78;;;8.80;99.90;;;;;;4908932;29;20059;-73
2023/04/07 07:01:32;;;;;;;12.50;8.10;;;8.90;99.90;;;;;;4908915;29;20385;-73
2023/04/07 07:04:02;;;;;;;12.50;7.65;;;8.90;99.90;;;;;;4902130;29;20104;-73
2023/04/07 07:06:31;;;;;;;10.95;7.65;;;9.00;99.90;;;;;;4889483;29;20055;-73
2023/04/07 07:09:04;;;;;;;11.80;8.00;;;9.00;99.90;;;;;;4888779;29;20041;-73
2023/04/07 07:11:30;;;;;;;12.32;8.13;;;9.10;99.90;;;;;;4890197;29;20100;-72
2023/04/07 07:14:19;;;;;;;12.52;7.95;;;9.30;99.90;;;;;;4888872;29;20021;-74
2023/04/07 07:17:12;;;;;;;11.13;7.65;;;9.30;99.90;;;;;;4889658;29;20037;-74
2023/04/07 07:19:38;;;;;;;11.30;8.23;;;9.40;99.90;;;;;;4888963;29;20056;-73
2023/04/07 07:22:15;;;;;;;11.02;7.50;;;9.40;99.90;;;;;;4888539;29;20045;-73
2023/04/07 07:24:44;;;;;;;11.07;7.63;;;9.50;99.90;;;;;;4888327;29;20234;-72
2023/04/07 07:27:33;;;;;;;11.30;7.60;;;9.50;99.90;;;;;;4889260;29;20050;-74
2023/04/07 07:30:25;;;;;;;11.73;7.13;;;9.60;99.90;;;;;;4888156;29;20029;-72
2023/04/07 07:34:00;;;;;;;11.80;8.07;;;9.50;99.90;;;;;;4872382;29;20029;-73
2023/04/07 07:36:52;;;;;;;15.80;8.38;;;9.40;99.90;;;;;;4888751;29;20109;-74
2023/04/07 07:39:39;;;;;;;12.55;7.70;;;9.50;99.90;;;;;;4888911;29;20223;-74
2023/04/07 07:42:16;;;;;;;12.55;7.38;;;9.50;99.90;;;;;;4904015;29;20356;-73
2023/04/07 07:45:03;;;;;;;11.60;7.90;;;9.60;99.90;;;;;;4888281;29;20046;-73
2023/04/07 07:47:36;;;;;;;12.50;8.65;;;9.70;99.90;;;;;;4888630;29;20033;-72
2023/04/07 07:50:07;;;;;;;11.63;7.35;;;9.80;99.90;;;;;;4887545;29;20041;-73
2023/04/07 07:52:39;;;;;;;11.90;8.07;;;9.70;99.90;;;;;;4888312;29;20036;-74
2023/04/07 07:55:07;;;;;;;12.73;8.27;;;9.70;99.90;;;;;;4888203;29;20045;-74
2023/04/07 07:57:42;;;;;;;12.68;7.95;;;9.80;99.90;;;;;;4888316;29;20029;-74
2023/04/07 08:00:29;;;;;;;12.63;7.97;;;9.80;99.90;;;;;;4889666;29;20089;-74
2023/04/07 08:03:07;;;;;;;14.07;8.45;;;9.80;99.90;;;;;;4908806;29;20099;-74
2023/04/07 08:05:36;;;;;;;17.13;8.38;;;9.80;99.90;;;;;;4925628;29;20036;-73
2023/04/07 08:08:14;;;;;;;12.05;7.28;;;9.80;99.90;;;;;;4909042;29;20024;-72
2023/04/07 08:10:44;;;;;;;11.63;7.60;;;9.90;99.90;;;;;;4925502;29;20123;-73
2023/04/07 08:13:25;;;;;;;12.02;7.60;;;10.10;99.90;;;;;;4926706;29;20100;-74
2023/04/07 08:15:57;;;;;;;11.20;7.38;;;10.30;99.90;;;;;;4926156;29;20206;-74
2023/04/07 08:18:37;;;;;;;12.68;8.10;;;10.60;99.90;;;;;;4926720;29;20083;-73
2023/04/07 08:21:30;;;;;;;9.85;6.80;;;10.90;99.90;;;;;;4925020;29;20039;-74
2023/04/07 08:24:13;;;;;;;13.38;7.40;;;11.40;99.90;;;;;;4900001;29;20051;-75
2023/04/07 08:26:44;;;;;;;11.27;7.10;;;11.60;99.90;;;;;;4926477;29;20099;-71
2023/04/07 08:29:19;;;;;;;10.40;6.55;;;12.00;99.90;;;;;;4910136;29;20377;-72
2023/04/07 08:31:51;;;;;;;9.40;5.70;;;12.20;98.30;;;;;;4924225;29;20108;-73
2023/04/07 08:35:04;;;;;;;7.20;5.47;;;12.40;98.10;;;;;;4925512;29;20031;-72
2023/04/07 08:37:30;;;;;;;6.85;4.97;;;12.80;97.60;;;;;;4926339;29;20056;-72
2023/04/07 08:40:25;;;;;;;7.43;4.82;;;12.70;96.50;;;;;;4908704;29;20047;-72
2023/04/07 08:43:23;;;;;;;8.77;3.97;;;12.50;96.20;;;;;;4925233;29;20326;-73
2023/04/07 08:45:54;;;;;;;6.07;3.78;;;12.50;95.30;;;;;;4905171;29;20083;-73
2023/04/07 08:48:36;;;;;;;5.97;3.95;;;12.60;95.10;;;;;;4905694;29;20237;-73
2023/04/07 08:51:33;;;;;;;6.10;4.05;;;12.30;94.90;;;;;;4904684;29;20349;-72
2023/04/07 08:54:17;;;;;;;6.72;4.10;;;12.50;95.50;;;;;;4904800;29;20052;-73
2023/04/07 08:57:18;;;;;;;6.65;4.15;;;12.50;94.90;;;;;;4892418;29;20034;-73
2023/04/07 08:59:47;;;;;;;7.82;4.90;;;12.40;95.30;;;;;;4900704;29;20044;-72
2023/04/07 09:02:14;;;;;;;8.52;5.05;;;12.40;95.20;;;;;;4905359;29;20488;-73
2023/04/07 09:04:53;;;;;;;6.65;4.68;;;12.40;95.40;;;;;;4890692;29;20032;-73
2023/04/07 09:07:19;;;;;;;8.88;4.78;;;12.40;95.40;;;;;;4889526;29;20040;-73
2023/04/07 09:10:39;;;;;;;7.70;4.65;;;12.40;95.10;;;;;;4888288;29;20052;-72
2023/04/07 09:13:12;;;;;;;7.15;4.72;;;12.40;95.30;;;;;;4860507;29;20071;-73
2023/04/07 09:15:42;;;;;;;9.35;4.75;;;12.60;94.90;;;;;;4874199;29;20080;-73
2023/04/07 09:18:08;;;;;;;7.05;4.63;;;12.60;95.10;;;;;;4904590;29;20055;-73
2023/04/07 09:21:01;;;;;;;7.50;4.45;;;12.80;95.10;;;;;;4905235;29;20024;-73
2023/04/07 09:23:42;;;;;;;7.97;5.00;;;13.00;94.70;;;;;;4924532;29;20043;-74
2023/04/07 09:26:26;;;;;;;6.70;4.75;;;13.10;94.40;;;;;;4909081;29;20108;-72
2023/04/07 09:29:03;;;;;;;8.02;4.85;;;13.20;94.20;;;;;;4908823;29;20099;-74
2023/04/07 09:32:03;;;;;;;7.80;4.72;;;13.20;94.00;;;;;;4909408;29;20035;-73
2023/04/07 09:34:35;;;;;;;7.70;4.90;;;13.20;93.90;;;;;;4925819;29;20423;-72
2023/04/07 09:37:06;;;;;;;6.10;4.70;;;13.40;93.70;;;;;;4925566;29;20047;-72
2023/04/07 09:39:32;;;;;;;7.68;4.30;;;13.50;93.70;;;;;;4925826;29;20043;-72
2023/04/07 09:42:01;;;;;;;7.90;4.45;;;13.60;93.70;;;;;;4925048;29;20087;-74
2023/04/07 09:44:40;;;;;;;9.20;4.72;;;13.80;93.30;;;;;;4924756;29;20211;-71
2023/04/07 09:47:45;;;;;;;7.43;4.18;;;13.90;92.90;;;;;;4923920;29;20254;-73
2023/04/07 09:50:44;;;;;;;7.72;4.13;;;14.30;92.60;;;;;;4924742;29;20062;-72
2023/04/07 09:53:10;;;;;;;6.55;4.15;;;14.80;91.70;;;;;;4925111;29;20040;-75
2023/04/07 09:55:39;;;;;;;7.57;4.75;;;15.00;90.70;;;;;;4908781;29;20119;-74
2023/04/07 09:58:20;;;;;;;7.07;4.55;;;14.80;90.60;;;;;;4925064;29;20039;-73
2023/04/07 10:00:47;;;;;;;7.20;4.53;;;15.00;90.20;;;;;;4927862;29;20036;-75
2023/04/07 10:03:15;;;;;;;7.70;4.40;;;15.20;90.20;;;;;;4927519;29;20063;-73
2023/04/07 10:05:48;;;;;;;7.63;4.47;;;15.30;90.10;;;;;;4927819;29;20290;-73
2023/04/07 10:08:20;;;;;;;8.05;4.28;;;15.40;89.30;;;;;;4928248;29;20047;-75
2023/04/07 10:13:38;;;;;;;6.57;4.15;;;15.70;88.80;;;;;;4919247;29;20238;-74
2023/04/07 10:16:07;;;;;;;;;;;15.60;87.80;;;;;;4928843;29;20066;-74
2023/04/07 10:18:40;;;;;;;6.70;4.15;;;15.50;87.90;;;;;;4929075;29;20197;-74
2023/04/07 10:21:32;;;;;;;6.35;4.28;;;15.50;88.40;;;;;;4928162;29;20353;-73
2023/04/07 10:24:25;;;;;;;7.60;4.30;;;15.60;88.70;;;;;;4925833;29;20056;-73
2023/04/07 10:27:03;;;;;;;8.30;4.35;;;15.60;88.10;;;;;;4912026;29;20032;-74
2023/04/07 10:29:51;;;;;;;8.07;4.00;;;16.00;87.60;;;;;;4928812;29;20113;-73
2023/04/07 10:32:47;;;;;;;8.80;4.07;;;16.20;87.50;;;;;;4927685;29;20341;-74
2023/04/07 10:35:13;;;;;;;5.57;3.50;;;16.60;86.10;;;;;;4927726;29;20039;-75
2023/04/07 10:37:39;;;;;;;5.57;3.63;;;16.70;85.40;;;;;;4928724;29;20067;-72
2023/04/07 10:40:36;;;;;;;6.68;4.32;;;16.70;85.00;;;;;;4908816;29;20071;-75
2023/04/07 10:43:03;;;;;;;7.78;4.40;;;16.50;84.30;;;;;;4927876;29;20039;-73
2023/04/07 10:46:06;;;;;;;5.50;3.90;;;16.30;84.60;;;;;;4928533;29;20091;-74
2023/04/07 10:48:41;;;;;;;6.43;3.42;;;16.00;85.30;;;;;;4928352;29;20047;-74
2023/04/07 10:51:22;;;;;;;6.10;3.88;;;16.10;85.80;;;;;;4927830;29;20036;-74
2023/04/07 10:54:45;;;;;;;7.65;3.88;;;16.50;85.30;;;;;;4927043;29;20038;-74
2023/04/07 10:57:13;;;;;;;8.70;3.60;;;16.50;84.40;;;;;;4927623;29;20036;-73
2023/04/07 11:00:04;;;;;;;6.72;4.05;;;16.40;84.00;;;;;;4908914;29;20243;-74
2023/04/07 11:02:40;;;;;;;6.55;4.07;;;16.60;83.90;;;;;;4921367;29;20115;-74
2023/04/07 11:05:19;;;;;;;7.03;3.70;;;16.80;83.60;;;;;;4926592;29;20052;-73
2023/04/07 11:08:05;;;;;;;10.02;4.00;;;17.00;83.70;;;;;;4926781;29;20040;-74
2023/04/07 11:11:12;;;;;;;6.28;3.75;;;17.30;81.90;;;;;;4926849;29;20040;-73
2023/04/07 11:14:06;;;;;;;6.28;3.63;;;17.30;80.30;;;;;;4915148;29;20043;-73
2023/04/07 11:16:44;;;;;;;6.70;3.58;;;16.90;81.10;;;;;;4925998;29;20044;-73
2023/04/07 11:19:20;;;;;;;6.85;3.40;;;17.30;81.30;;;;;;4926069;29;20059;-73
2023/04/07 11:22:11;;;;;;;6.25;3.50;;;17.60;80.00;;;;;;4927827;29;20024;-74
2023/04/07 11:24:40;;;;;;;5.63;2.67;;;17.60;78.90;;;;;;4927603;29;20334;-72
2023/04/07 11:27:15;;;;;;;6.68;2.90;;;17.10;79.10;;;;;;4910038;29;20044;-73
2023/04/07 11:30:01;;;;;;;5.22;3.50;;;16.70;80.30;;;;;;4927621;29;20044;-73
2023/04/07 11:32:35;;;;;;;4.05;3.08;;;16.50;81.00;;;;;;4924283;29;20055;-73
2023/04/07 11:35:30;;;;;;;7.25;3.90;;;16.30;82.30;;;;;;4925607;29;20318;-72
2023/04/07 11:38:00;;;;;;;6.82;3.88;;;15.90;82.60;;;;;;4926123;29;20169;-73
2023/04/07 11:40:36;;;;;;;8.32;3.60;;;15.50;84.40;;;;;;4926340;29;20048;-74
2023/04/07 11:43:22;;;;;;;6.15;3.53;;;15.50;85.60;;;;;;4927005;29;20043;-73
2023/04/07 11:46:06;;;;;;;5.63;3.70;;;15.50;85.80;;;;;;4927522;29;20028;-74
2023/04/07 11:48:38;;;;;;;7.07;3.53;;;15.60;86.00;;;;;;4927134;29;20071;-74
2023/04/07 11:51:05;;;;;;;6.25;3.65;;;15.60;85.20;;;;;;4926757;29;20032;-74
2023/04/07 11:53:38;;;;;;;8.23;3.70;;;15.30;85.70;;;;;;4927142;29;20385;-73
2023/04/07 11:56:17;;;;;;;8.63;4.05;;;15.10;89.20;;;;;;4909856;29;20099;-74
2023/04/07 11:58:53;;;;;;;6.72;3.60;;;14.90;88.60;;;;;;4927006;29;20222;-75
2023/04/07 12:01:20;;;;;;;5.72;3.42;;;14.60;89.20;;;;;;4926187;29;20040;-72
2023/04/07 12:04:00;;;;;;;5.50;3.70;;;14.40;89.20;;;;;;4927083;29;20067;-74
2023/04/07 12:06:42;;;;;;;8.55;4.13;;;14.20;89.00;;;;;;4927069;29;20229;-72
2023/04/07 12:09:31;;;;;;;8.15;4.05;;;14.10;89.70;;;;;;4925154;29;20063;-72
2023/04/07 12:12:00;;;;;;;6.07;3.83;;;13.90;92.10;;;;;;4926990;29;20254;-72
2023/04/07 12:14:41;;;;;;;7.60;4.40;;;13.80;93.10;;;;;;4926759;29;20032;-73
2023/04/07 12:17:24;;;;;;;9.07;5.18;;;13.70;93.80;;;;;;4926413;29;20107;-73
2023/04/07 12:19:49;;;;;;;7.95;5.07;;;13.00;97.20;;;;;;4925216;29;20028;-73
2023/04/07 12:22:15;;;;;;;8.30;5.57;;;12.60;99.60;;;;;;4925825;29;20038;-73
2023/04/07 12:24:44;;;;;;;9.82;5.50;;;12.40;99.90;;;;;;4926429;29;20032;-74
2023/04/07 12:27:10;;;;;;;9.05;4.88;;;11.90;99.90;;;;;;4925820;29;20032;-73
2023/04/07 12:29:37;;;;;;;8.65;5.40;;;11.70;99.90;;;;;;4926665;29;20329;-72
2023/04/07 12:32:04;;;;;;;7.63;4.88;;;11.60;99.90;;;;;;4924863;29;20270;-73
2023/04/07 12:34:36;;;;;;;6.72;3.95;;;11.50;99.90;;;;;;4926954;29;20091;-74
2023/04/07 12:37:02;;;;;;;3.83;2.40;;;11.50;99.90;;;;;;4914264;29;20277;-73
2023/04/07 12:39:28;;;;;;;5.70;2.50;;;11.60;99.90;;;;;;4926427;29;20041;-73
2023/04/07 12:41:57;;;;;;;5.25;1.95;;;11.80;99.90;;;;;;4926186;29;20031;-74
2023/04/07 12:44:22;;;;;;;5.97;2.67;;;12.00;99.10;;;;;;4926062;29;20043;-72
2023/04/07 12:46:52;;;;;;;5.25;2.22;;;12.00;99.90;;;;;;4925783;29;20024;-73
2023/04/07 12:49:18;;;;;;;3.83;2.08;;;12.00;99.40;;;;;;4924376;29;20059;-72
2023/04/07 12:51:44;;;;;;;4.30;2.33;;;12.00;98.50;;;;;;4925924;29;20040;-72
2023/04/07 12:54:16;;;;;;;5.80;2.60;;;12.20;99.30;;;;;;4908908;29;20020;-73
2023/04/07 12:56:48;;;;;;;3.70;1.77;;;12.20;97.60;;;;;;4909954;29;20103;-73
2023/04/07 12:59:14;;;;;;;5.10;2.10;;;12.20;97.30;;;;;;4925391;29;20310;-72
2023/04/07 13:01:41;;;;;;;3.05;1.90;;;12.10;97.10;;;;;;4904592;29;20033;-73
2023/04/07 13:04:12;;;;;;;3.83;1.90;;;12.10;97.50;;;;;;4922858;29;20043;-72
2023/04/07 13:06:50;;;;;;;3.38;1.98;;;12.20;96.40;;;;;;4926057;29;20031;-72
2023/04/07 13:09:42;;;;;;;6.07;2.40;;;12.30;97.10;;;;;;4925373;29;20103;-73
2023/04/07 13:12:33;;;;;;;3.67;1.77;;;12.30;96.30;;;;;;4925326;29;20032;-73
2023/04/07 13:15:06;;;;;;;2.83;1.10;;;12.50;96.30;;;;;;4925774;29;20036;-74
2023/04/07 13:17:35;;;;;;;3.22;1.27;;;12.60;93.90;;;;;;4924639;29;20048;-73
2023/04/07 13:20:02;;;;;;;3.47;1.30;;;12.60;94.70;;;;;;4925776;29;20043;-73
2023/04/07 13:25:17;;;;;;;4.55;1.30;;;12.50;94.70;;;;;;4895990;29;20067;-72
2023/04/07 13:27:43;;;;;;;;;;;12.80;94.70;;;;;;4926436;29;20051;-71
2023/04/07 13:30:09;;;;;;;4.35;1.50;;;12.70;94.40;;;;;;4923798;29;19914;-74
2023/04/07 13:32:37;;;;;;;4.35;1.85;;;13.00;94.70;;;;;;4927163;29;20032;-71
2023/04/07 13:35:03;;;;;;;;;;;13.10;94.00;;;;;;4929635;29;20036;-72
2023/04/07 13:37:40;;;;;;;3.20;1.60;;;13.00;94.80;;;;;;4930049;29;19916;-72
2023/04/07 13:40:14;;;;;;;5.40;2.28;;;13.00;95.00;;;;;;4927615;29;20055;-73
2023/04/07 13:42:42;;;;;;;3.90;1.88;;;13.00;94.90;;;;;;4929461;29;20051;-72
2023/04/07 13:45:08;;;;;;;3.95;1.80;;;12.60;95.50;;;;;;4928672;29;20222;-74
2023/04/07 13:48:05;;;;;;;4.22;1.90;;;12.60;95.50;;;;;;4929319;29;20028;-74
2023/04/07 13:50:35;;;;;;;4.27;1.80;;;12.30;96.00;;;;;;4929569;29;20390;-73
2023/04/07 13:53:20;;;;;;;5.47;1.92;;;12.20;95.90;;;;;;4928157;29;20481;-73
2023/04/07 13:56:09;;;;;;;5.35;2.20;;;12.30;96.60;;;;;;4928006;29;20326;-75
2023/04/07 13:58:42;;;;;;;4.07;1.92;;;12.30;96.80;;;;;;4922147;29;20210;-72
2023/04/07 14:01:16;;;;;;;4.20;2.13;;;12.30;96.20;;;;;;4928549;29;20373;-73
2023/04/07 14:03:48;;;;;;;3.88;2.47;;;12.40;96.10;;;;;;4929024;29;20145;-74
2023/04/07 14:06:25;;;;;;;4.63;2.30;;;12.60;96.50;;;;;;4927542;29;20040;-72
2023/04/07 14:08:57;;;;;;;4.57;2.80;;;12.90;96.10;;;;;;4929223;29;20047;-73
2023/04/07 14:11:23;;;;;;;5.57;2.35;;;13.00;95.20;;;;;;4928532;29;20039;-72
2023/04/07 14:13:52;;;;;;;4.55;2.35;;;13.10;95.40;;;;;;4928874;29;20111;-73
2023/04/07 14:16:17;;;;;;;4.50;2.17;;;13.00;95.10;;;;;;4928255;29;20099;-73
2023/04/07 14:18:43;;;;;;;3.35;2.08;;;13.00;95.60;;;;;;4928790;29;20039;-73
2023/04/07 14:21:09;;;;;;;5.03;2.42;;;13.40;95.90;;;;;;4928435;29;20325;-73
2023/04/07 14:23:45;;;;;;;6.22;2.47;;;13.70;94.90;;;;;;4929012;29;20040;-74
2023/04/07 14:26:16;;;;;;;4.82;2.30;;;14.00;94.70;;;;;;4928045;29;20040;-73
2023/04/07 14:28:54;;;;;;;5.28;2.72;;;14.00;93.90;;;;;;4928562;29;20115;-73
2023/04/07 14:31:25;;;;;;;7.75;5.13;;;14.20;93.70;;;;;;4928299;29;20024;-73
2023/04/07 14:33:51;;;;;;;4.32;2.40;;;14.30;93.20;;;;;;4928626;29;20036;-73
2023/04/07 14:36:18;;;;;;;5.05;2.50;;;14.30;93.50;;;;;;4927873;29;20143;-71
2023/04/07 14:38:44;;;;;;;4.18;2.17;;;13.90;94.10;;;;;;4911881;29;20032;-72
2023/04/07 14:41:10;;;;;;;5.03;2.58;;;13.80;93.90;;;;;;4927750;29;20266;-73
2023/04/07 14:43:36;;;;;;;5.40;2.65;;;13.80;93.40;;;;;;4928224;29;20052;-73
2023/04/07 14:46:04;;;;;;;5.78;3.33;;;13.90;93.90;;;;;;4927228;29;20044;-75
2023/04/07 14:48:30;;;;;;;5.22;2.60;;;13.90;94.00;;;;;;4927655;29;20032;-72
2023/04/07 14:51:04;;;;;;;5.15;2.30;;;13.80;94.20;;;;;;4928353;29;20032;-73
2023/04/07 14:53:37;;;;;;;5.75;2.65;;;13.70;94.20;;;;;;4926405;29;20111;-73
2023/04/07 14:56:06;;;;;;;4.40;2.70;;;13.70;94.30;;;;;;4928197;29;20046;-73
2023/04/07 14:58:32;;;;;;;4.50;2.42;;;13.50;94.20;;;;;;4927487;29;20288;-72
2023/04/07 15:00:57;;;;;;;5.05;2.53;;;13.40;93.40;;;;;;4928219;29;20036;-73
2023/04/07 15:03:23;;;;;;;5.25;2.88;;;13.30;93.60;;;;;;4927259;29;20286;-73
2023/04/07 15:05:51;;;;;;;6.82;2.58;;;13.20;94.00;;;;;;4927643;29;20028;-73
2023/04/07 15:08:26;;;;;;;5.10;2.65;;;13.00;94.50;;;;;;4927388;29;20051;-74
2023/04/07 15:10:52;;;;;;;7.60;2.40;;;13.20;94.30;;;;;;4928045;29;20032;-73
2023/04/07 15:13:24;;;;;;;5.18;2.17;;;13.40;93.80;;;;;;4927543;29;20149;-74
2023/04/07 15:16:27;;;;;;;6.20;2.40;;;13.60;93.60;;;;;;4926984;29;20083;-74
2023/04/07 15:19:01;;;;;;;5.38;2.30;;;13.80;93.20;;;;;;4927772;29;20036;-73
2023/04/07 15:21:31;;;;;;;6.07;2.42;;;13.80;93.20;;;;;;4925695;29;20051;-74
2023/04/07 15:23:56;;;;;;;3.95;1.77;;;13.80;92.30;;;;;;4927629;29;20019;-73
2023/04/07 15:26:22;;;;;;;4.10;2.00;;;13.80;92.10;;;;;;4926928;29;20353;-73
2023/04/07 15:28:48;;;;;;;3.97;2.30;;;13.70;92.10;;;;;;4927416;29;20036;-73
2023/04/07 15:31:14;;;;;;;5.50;2.60;;;13.60;93.10;;;;;;4926834;29;20095;-73
2023/04/07 15:33:40;;;;;;;8.05;2.58;;;13.80;92.60;;;;;;4927414;29;20054;-73
2023/04/07 15:36:07;;;;;;;6.70;2.80;;;13.90;92.70;;;;;;4927325;29;20047;-74
2023/04/07 15:38:33;;;;;;;5.68;2.90;;;13.90;92.90;;;;;;4926771;29;20298;-73
2023/04/07 15:41:05;;;;;;;7.22;2.85;;;14.10;93.10;;;;;;4927425;29;20067;-72
2023/04/07 15:43:37;;;;;;;4.32;2.67;;;14.20;92.80;;;;;;4926844;29;20120;-74
2023/04/07 15:46:09;;;;;;;4.13;2.58;;;14.30;92.80;;;;;;4927084;29;20036;-72
2023/04/07 15:48:35;;;;;;;6.38;2.83;;;14.90;92.40;;;;;;4924812;29;20051;-73
2023/04/07 15:51:04;;;;;;;5.28;2.88;;;15.90;91.20;;;;;;4926886;29;20306;-74
2023/04/07 15:53:30;;;;;;;5.82;2.95;;;16.60;90.10;;;;;;4925489;29;20058;-74
2023/04/07 16:00:02;;;;;;;5.85;2.45;;;17.90;85.90;;;;;;4926357;29;20104;-73
2023/04/07 16:02:34;;;;;;;4.53;2.20;;;18.30;84.00;;;;;;4916966;29;20376;-73
2023/04/07 16:05:09;;;;;;;5.05;2.65;;;18.00;83.70;;;;;;4925778;29;20032;-73
2023/04/07 16:07:35;;;;;;;5.45;2.67;;;17.60;84.20;;;;;;4925297;29;20050;-73
2023/04/07 16:10:25;;;;;;;4.97;1.98;;;17.20;84.80;;;;;;4927065;29;20048;-74
2023/04/07 16:12:52;;;;;;;5.00;2.28;;;16.80;84.40;;;;;;4925832;29;20074;-74
2023/04/07 16:15:19;;;;;;;3.90;1.80;;;16.50;84.80;;;;;;4926498;29;20036;-74
2023/04/07 16:17:53;;;;;;;4.55;2.10;;;16.10;85.80;;;;;;4910190;29;20035;-72
2023/04/07 16:20:18;;;;;;;6.32;2.08;;;15.80;87.00;;;;;;4924194;29;20108;-73
2023/04/07 16:22:46;;;;;;;5.18;2.25;;;15.60;88.40;;;;;;4926697;29;20221;-73
2023/04/07 16:25:25;;;;;;;;;;;15.30;88.40;;;;;;4909959;29;20206;-74
2023/04/07 16:27:56;;;;;;;3.10;1.42;;;14.90;89.10;;;;;;4925452;29;19906;-74
2023/04/07 16:30:31;;;;;;;3.85;1.75;;;14.50;88.90;;;;;;4926218;29;20042;-75
2023/04/07 16:33:38;;;;;;;3.47;1.60;;;14.20;89.00;;;;;;4925596;29;20099;-73
2023/04/07 16:36:07;;;;;;;3.90;1.77;;;14.00;89.80;;;;;;4926444;29;20203;-73
2023/04/07 16:38:38;;;;;;;3.38;1.50;;;13.80;90.30;;;;;;4925867;29;20329;-73
2023/04/07 16:41:06;;;;;;;3.85;1.80;;;13.70;90.70;;;;;;4926223;29;20027;-73
2023/04/07 16:43:35;;;;;;;4.93;1.60;;;13.60;90.40;;;;;;4924914;29;20024;-72
2023/04/07 16:46:10;;;;;;;4.22;1.55;;;13.50;90.40;;;;;;4926418;29;20032;-73
2023/04/07 16:48:36;;;;;;;3.05;1.45;;;13.40;90.60;;;;;;4925614;29;20024;-73
2023/04/07 16:51:03;;;;;;;3.83;1.88;;;13.40;91.20;;;;;;4925194;29;20337;-72
2023/04/07 16:53:53;;;;;;;5.18;2.45;;;13.30;91.50;;;;;;4909123;29;20099;-75
2023/04/07 16:56:23;;;;;;;6.85;2.60;;;13.20;92.20;;;;;;4924269;29;20044;-73
2023/04/07 16:58:55;;;;;;;6.80;3.00;;;13.20;92.50;;;;;;4926134;29;20051;-74
2023/04/07 17:01:30;;;;;;;5.50;2.80;;;13.10;93.00;;;;;;4924123;29;20044;-75
2023/04/07 17:04:21;;;;;;;6.20;3.33;;;12.90;93.90;;;;;;4923355;29;20062;-73
2023/04/07 17:06:47;;;;;;;7.07;2.92;;;12.80;93.90;;;;;;4926090;29;20099;-74
2023/04/07 17:09:16;;;;;;;6.80;3.17;;;12.80;94.00;;;;;;4925852;29;20044;-74
2023/04/07 17:11:45;;;;;;;6.03;3.00;;;12.80;94.20;;;;;;4926006;29;20024;-72
2023/04/07 17:14:19;;;;;;;5.30;2.53;;;12.80;94.00;;;;;;4925554;29;20040;-73
2023/04/07 17:16:51;;;;;;;6.18;3.22;;;12.50;94.30;;;;;;4925218;29;20294;-73
2023/04/07 17:19:38;;;;;;;8.52;3.58;;;12.40;94.80;;;;;;4924282;29;20051;-72
2023/04/07 17:22:03;;;;;;;7.20;3.38;;;12.40;94.90;;;;;;4924225;29;20032;-74
2023/04/07 17:24:28;;;;;;;6.43;3.20;;;12.30;95.40;;;;;;4924196;29;20135;-73
2023/04/07 17:26:54;;;;;;;6.60;3.20;;;12.10;95.50;;;;;;4925702;29;20087;-73
2023/04/07 17:29:24;;;;;;;7.30;3.72;;;12.10;96.00;;;;;;4924126;29;20090;-72
2023/04/07 17:31:50;;;;;;;5.35;3.47;;;12.00;96.20;;;;;;4925829;29;20330;-71
2023/04/07 17:34:16;;;;;;;6.68;3.42;;;11.90;96.50;;;;;;4925569;29;20043;-73
2023/04/07 17:36:41;;;;;;;4.53;3.20;;;11.80;96.80;;;;;;4925475;29;20292;-73
2023/04/07 17:39:28;;;;;;;5.93;3.58;;;11.70;97.20;;;;;;4926086;29;20038;-73
2023/04/07 17:41:56;;;;;;;6.93;3.70;;;11.80;97.50;;;;;;4925467;29;20054;-73
2023/04/07 17:44:37;;;;;;;7.95;3.83;;;11.80;97.50;;;;;;4923968;29;20032;-72
2023/04/07 17:47:03;;;;;;;5.88;3.17;;;11.80;97.90;;;;;;4925533;29;20218;-74
2023/04/07 17:49:29;;;;;;;7.22;3.63;;;11.70;97.60;;;;;;4924866;29;20088;-73
2023/04/07 17:51:55;;;;;;;4.55;2.80;;;11.70;97.70;;;;;;4925363;29;20099;-74
2023/04/07 17:54:21;;;;;;;3.80;2.67;;;11.70;97.80;;;;;;4923980;29;20040;-73
2023/04/07 17:56:46;;;;;;;4.40;2.40;;;11.60;98.00;;;;;;4925568;29;20040;-74
2023/04/07 17:59:12;;;;;;;5.07;2.95;;;11.60;98.30;;;;;;4925621;29;20047;-73
2023/04/07 18:01:48;;;;;;;4.18;2.78;;;11.50;98.50;;;;;;4925080;29;20372;-74
2023/04/07 18:04:14;;;;;;;4.57;3.08;;;11.50;98.70;;;;;;4925380;29;20075;-73
2023/04/07 18:06:39;;;;;;;4.95;3.03;;;11.30;99.10;;;;;;4923858;29;20036;-74
2023/04/07 18:09:06;;;;;;;4.38;2.78;;;11.20;99.40;;;;;;4924594;29;20104;-72
2023/04/07 18:11:32;;;;;;;4.75;3.03;;;11.20;99.60;;;;;;4924974;29;20110;-73
2023/04/07 18:13:58;;;;;;;3.78;2.50;;;11.10;99.90;;;;;;4925401;29;20075;-73
2023/04/07 18:16:30;;;;;;;4.90;2.92;;;11.10;99.90;;;;;;4925345;29;20036;-73
2023/04/07 18:19:04;;;;;;;5.85;2.58;;;11.00;99.90;;;;;;4925962;29;20036;-73
2023/04/07 18:21:34;;;;;;;4.45;2.35;;;11.00;99.90;;;;;;4928462;29;20380;-74
2023/04/07 18:24:03;;;;;;;3.58;2.15;;;10.90;99.90;;;;;;4911729;29;20205;-74
2023/04/07 18:26:30;;;;;;;4.13;2.30;;;10.90;99.90;;;;;;4928290;29;20032;-74
2023/04/07 18:29:13;;;;;;;3.88;2.35;;;10.70;99.90;;;;;;4927639;29;20036;-73
2023/04/07 18:31:40;;;;;;;4.68;2.50;;;10.70;99.90;;;;;;4927103;29;20139;-73
2023/04/07 18:34:07;;;;;;;4.45;2.40;;;10.60;99.90;;;;;;4928569;29;20051;-73
2023/04/07 18:39:21;;;;;;;3.10;1.90;;;10.40;99.90;;;;;;4928006;29;20032;-73
2023/04/07 18:41:47;;;;;;;4.63;1.88;;;10.40;99.90;;;;;;4928451;29;20028;-74
2023/04/07 18:44:13;;;;;;;2.80;1.80;;;10.40;99.90;;;;;;4927567;29;20140;-75
2023/04/07 18:47:19;;;;;;;3.55;1.80;;;10.30;99.90;;;;;;4928236;29;20062;-75
2023/04/07 18:49:48;;;;;;;3.53;1.85;;;10.20;99.90;;;;;;4927918;29;20036;-73
2023/04/07 18:52:20;;;;;;;3.53;1.88;;;10.20;99.90;;;;;;4911343;29;20031;-73